createdAt,value
2022-08-08T00:01:15.729Z,71.24
2022-08-08T00:03:54.654Z,73.16
2022-08-08T00:06:34.991Z,72.69
2022-08-08T00:09:04.285Z,73.42
2022-08-08T00:12:09.879Z,73.57
2022-08-08T00:15:03.245Z,73.79
2022-08-08T00:18:02.338Z,72.86
2022-08-08T00:20:49.886Z,72.62
2022-08-08T00:23:28.307Z,73.91
2022-08-08T00:26:08.528Z,74.02
2022-08-08T00:28:42.230Z,73.99
2022-08-08T00:32:28.742Z,74.19
2022-08-08T00:34:47.456Z,74.80
2022-08-08T00:37:48.100Z,74.72
2022-08-08T00:41:08.978Z,75.72
2022-08-08T00:43:40.875Z,76.24
2022-08-08T00:46:19.877Z,76.19
2022-08-08T00:49:22.149Z,76.71
2022-08-08T00:52:19.912Z,76.58
2022-08-08T00:55:02.116Z,77.21
2022-08-08T00:57:40.514Z,77.27
2022-08-08T01:00:07.526Z,76.91
2022-08-08T01:03:57.271Z,76.50
2022-08-08T01:06:02.485Z,75.87
2022-08-08T01:08:50.369Z,75.01
2022-08-08T01:11:37.706Z,74.62
2022-08-08T01:14:04.162Z,75.29
2022-08-08T01:16:33.528Z,75.02
2022-08-08T01:19:12.440Z,75.49
2022-08-08T01:22:12.030Z,74.71
2022-08-08T01:24:58.375Z,74.98
2022-08-08T01:27:44.335Z,74.98
2022-08-08T01:30:24.897Z,74.84
2022-08-08T01:33:27.894Z,74.92
2022-08-08T01:36:18.769Z,75.35
2022-08-08T01:39:03.511Z,74.53
2022-08-08T01:41:34.229Z,74.08
2022-08-08T01:44:07.193Z,74.22
2022-08-08T01:46:52.360Z,75.04
2022-08-08T01:49:37.562Z,74.59
2022-08-08T01:52:49.738Z,74.15
2022-08-08T01:55:16.937Z,75.37
2022-08-08T01:58:13.039Z,75.03
2022-08-08T02:00:57.408Z,76.01
2022-08-08T02:03:55.179Z,76.35
2022-08-08T02:06:32.358Z,76.49
2022-08-08T02:10:01.727Z,76.71
2022-08-08T02:12:13.259Z,76.39
2022-08-08T02:14:55.155Z,76.14
2022-08-08T02:17:26.797Z,76.06
2022-08-08T02:20:14.748Z,75.55
2022-08-08T02:22:52.868Z,75.27
2022-08-08T02:25:32.764Z,76.39
2022-08-08T02:28:13.089Z,76.65
2022-08-08T02:31:01.938Z,76.93
2022-08-08T02:33:41.421Z,77.39
2022-08-08T02:36:37.806Z,76.78
2022-08-08T02:39:40.822Z,77.12
2022-08-08T02:42:04.180Z,76.65
2022-08-08T02:44:56.875Z,76.19
2022-08-08T02:47:27.178Z,76.92
2022-08-08T02:50:04.555Z,77.45
2022-08-08T02:52:38.784Z,77.88
2022-08-08T02:55:10.361Z,77.05
2022-08-08T02:57:54.948Z,76.42
2022-08-08T03:00:51.309Z,77.33
2022-08-08T03:03:46.320Z,77.24
2022-08-08T03:06:34.802Z,77.17
2022-08-08T03:09:28.791Z,77.27
2022-08-08T03:12:36.876Z,76.99
2022-08-08T03:16:02.365Z,78.06
2022-08-08T03:18:13.703Z,77.72
2022-08-08T03:20:51.944Z,77.98
2022-08-08T03:23:19.139Z,77.95
2022-08-08T03:25:46.563Z,77.54
2022-08-08T03:28:18.984Z,78.15
2022-08-08T03:30:49.148Z,78.21
2022-08-08T03:33:55.647Z,78.86
2022-08-08T03:36:19.618Z,78.68
2022-08-08T03:38:54.117Z,78.36
2022-08-08T03:42:12.563Z,77.94
2022-08-08T03:44:18.914Z,77.17
2022-08-08T03:46:51.854Z,78.04
2022-08-08T03:49:58.814Z,77.55
2022-08-08T03:52:06.105Z,78.53
2022-08-08T03:55:02.145Z,78.01
2022-08-08T03:58:30.074Z,78.46
2022-08-08T04:00:18.286Z,79.19
2022-08-08T04:02:54.750Z,78.54
2022-08-08T04:05:27.346Z,78.32
2022-08-08T04:07:55.273Z,78.75
2022-08-08T04:10:21.728Z,78.58
2022-08-08T04:12:49.838Z,79.10
2022-08-08T04:15:16.376Z,78.95
2022-08-08T04:17:46.246Z,79.56
2022-08-08T04:20:28.367Z,78.87
2022-08-08T04:22:56.953Z,78.84
2022-08-08T04:25:30.105Z,78.84
2022-08-08T04:28:10.600Z,78.70
2022-08-08T04:30:46.836Z,78.68
2022-08-08T04:33:15.822Z,78.63
2022-08-08T04:35:50.900Z,78.71
2022-08-08T04:38:21.716Z,77.83
2022-08-08T04:40:53.289Z,78.24
2022-08-08T04:43:20.423Z,79.10
2022-08-08T04:45:49.459Z,80.47
2022-08-08T04:48:16.015Z,79.84
2022-08-08T04:50:44.692Z,80.02
2022-08-08T04:53:14.018Z,79.95
2022-08-08T04:55:59.580Z,79.43
2022-08-08T04:58:26.077Z,78.11
2022-08-08T05:00:52.500Z,77.98
2022-08-08T05:04:09.809Z,76.77
2022-08-08T05:06:13.536Z,78.21
2022-08-08T05:08:51.526Z,77.92
2022-08-08T05:11:24.140Z,78.15
2022-08-08T05:13:57.596Z,77.56
2022-08-08T05:16:55.393Z,77.47
2022-08-08T05:20:09.036Z,76.52
2022-08-08T05:22:01.000Z,75.30
2022-08-08T05:24:27.526Z,76.45
2022-08-08T05:26:53.898Z,75.57
2022-08-08T05:29:20.786Z,76.01
2022-08-08T05:32:04.285Z,75.57
2022-08-08T05:34:40.774Z,74.44
2022-08-08T05:37:16.053Z,75.16
2022-08-08T05:39:46.799Z,74.45
2022-08-08T05:42:14.598Z,74.11
2022-08-08T05:44:45.323Z,73.32
2022-08-08T05:47:14.350Z,72.34
2022-08-08T05:49:56.000Z,72.12
2022-08-08T05:52:35.551Z,72.06
2022-08-08T05:55:09.936Z,71.46
2022-08-08T05:58:04.012Z,71.87
2022-08-08T06:00:27.960Z,72.67
2022-08-08T06:03:17.260Z,72.18
2022-08-08T06:05:52.091Z,71.76
2022-08-08T06:08:35.987Z,70.72
2022-08-08T06:11:04.904Z,71.43
2022-08-08T06:13:36.259Z,72.62
2022-08-08T06:16:13.741Z,73.44
2022-08-08T06:18:40.751Z,71.89
2022-08-08T06:21:11.799Z,71.72
2022-08-08T06:24:04.675Z,70.64
2022-08-08T06:26:44.504Z,69.96
2022-08-08T06:29:48.885Z,70.73
2022-08-08T06:32:15.282Z,70.75
2022-08-08T06:34:56.324Z,69.18
2022-08-08T06:37:37.425Z,68.33
2022-08-08T06:40:15.924Z,68.40
2022-08-08T06:42:56.474Z,67.70
2022-08-08T06:45:23.314Z,67.59
2022-08-08T06:47:51.830Z,67.63
2022-08-08T06:50:31.817Z,67.54
2022-08-08T06:53:00.698Z,67.60
2022-08-08T06:55:37.664Z,67.28
2022-08-08T06:58:07.999Z,66.40
2022-08-08T07:00:36.136Z,65.46
2022-08-08T07:03:09.013Z,65.31
2022-08-08T07:06:02.042Z,63.24
2022-08-08T07:08:37.734Z,64.21
2022-08-08T07:11:05.119Z,63.74
2022-08-08T07:13:38.702Z,64.41
2022-08-08T07:16:31.811Z,63.92
2022-08-08T07:19:21.843Z,63.04
2022-08-08T07:21:59.187Z,60.66
2022-08-08T07:24:38.082Z,61.35
2022-08-08T07:27:09.348Z,59.87
2022-08-08T07:30:02.293Z,60.17
2022-08-08T07:32:25.578Z,60.02
2022-08-08T07:35:00.971Z,57.15
2022-08-08T07:37:28.525Z,57.26
2022-08-08T07:40:28.765Z,54.03
2022-08-08T07:42:56.483Z,54.73
2022-08-08T07:45:23.422Z,56.35
2022-08-08T07:47:54.735Z,56.11
2022-08-08T07:50:21.929Z,56.20
2022-08-08T07:52:57.578Z,58.04
2022-08-08T07:55:28.591Z,57.74
2022-08-08T07:58:16.730Z,57.33
2022-08-08T08:00:48.500Z,56.42
2022-08-08T08:03:23.746Z,55.22
2022-08-08T08:05:54.119Z,54.22
2022-08-08T08:08:23.070Z,51.84
2022-08-08T08:10:50.391Z,51.07
2022-08-08T08:13:42.785Z,49.96
2022-08-08T08:16:23.570Z,50.32
2022-08-08T08:19:03.836Z,50.74
2022-08-08T08:21:52.304Z,49.15
2022-08-08T08:24:21.642Z,49.45
2022-08-08T08:26:57.419Z,50.03
2022-08-08T08:29:24.077Z,50.10
2022-08-08T08:31:58.086Z,47.92
2022-08-08T08:34:32.291Z,48.14
2022-08-08T08:37:00.462Z,48.42
2022-08-08T08:39:59.851Z,48.68
2022-08-08T08:42:29.294Z,47.94
2022-08-08T08:45:21.794Z,47.61
2022-08-08T08:47:54.034Z,47.92
2022-08-08T08:50:32.818Z,48.31
2022-08-08T08:53:04.951Z,47.28
2022-08-08T08:55:49.734Z,47.83
2022-08-08T08:58:31.368Z,47.34
2022-08-08T09:01:09.142Z,47.66
2022-08-08T09:03:47.657Z,45.14
2022-08-08T09:06:31.890Z,46.72
2022-08-08T09:09:40.310Z,45.62
2022-08-08T09:12:16.271Z,44.82
2022-08-08T09:14:45.005Z,43.98
2022-08-08T09:17:18.357Z,45.19
2022-08-08T09:22:00.704Z,45.61
2022-08-08T09:22:46.344Z,47.10
2022-08-08T09:25:15.106Z,47.19
2022-08-08T09:27:57.492Z,46.72
2022-08-08T09:30:25.910Z,47.17
2022-08-08T09:33:12.479Z,48.20
2022-08-08T09:35:49.209Z,48.43
2022-08-08T09:38:32.102Z,48.71
2022-08-08T09:41:03.169Z,48.96
2022-08-08T09:44:04.479Z,47.87
2022-08-08T09:46:25.874Z,46.54
2022-08-08T09:48:57.687Z,46.70
2022-08-08T09:52:06.033Z,46.88
2022-08-08T09:54:43.879Z,47.22
2022-08-08T09:57:16.553Z,47.13
2022-08-08T10:02:47.260Z,44.53
2022-08-08T10:05:25.614Z,46.13
2022-08-08T10:07:52.295Z,46.40
2022-08-08T10:10:37.745Z,46.79
2022-08-08T10:13:19.226Z,44.98
2022-08-08T10:16:01.046Z,45.32
2022-08-08T10:18:37.334Z,45.90
2022-08-08T10:21:22.480Z,45.48
2022-08-08T10:23:58.525Z,44.87
2022-08-08T10:26:30.579Z,43.94
2022-08-08T10:29:21.150Z,43.28
2022-08-08T10:32:15.009Z,44.07
2022-08-08T10:34:49.330Z,45.15
2022-08-08T10:37:30.689Z,44.23
2022-08-08T10:39:57.855Z,43.89
2022-08-08T10:42:35.728Z,44.13
2022-08-08T10:45:09.171Z,43.83
2022-08-08T10:47:43.852Z,43.86
2022-08-08T10:50:15.692Z,44.55
2022-08-08T10:52:42.484Z,44.75
2022-08-08T10:55:15.397Z,44.32
2022-08-08T10:58:08.469Z,43.21
2022-08-08T11:00:48.624Z,43.99
2022-08-08T11:03:37.224Z,43.31
2022-08-08T11:06:12.723Z,43.65
2022-08-08T11:08:53.206Z,43.42
2022-08-08T11:12:00.201Z,42.94
2022-08-08T11:14:07.801Z,43.71
2022-08-08T11:16:46.704Z,43.82
2022-08-08T11:19:15.574Z,42.94
2022-08-08T11:21:55.748Z,42.81
2022-08-08T11:24:25.116Z,42.77
2022-08-08T11:26:56.556Z,42.65
2022-08-08T11:29:41.344Z,41.95
2022-08-08T11:32:13.709Z,42.54
2022-08-08T11:34:58.962Z,42.95
2022-08-08T11:38:36.329Z,43.34
2022-08-08T11:40:15.749Z,43.07
2022-08-08T11:42:50.868Z,43.04
2022-08-08T11:45:18.199Z,43.81
2022-08-08T11:48:02.473Z,44.90
2022-08-08T11:50:32.310Z,43.13
2022-08-08T11:53:00.774Z,42.93
2022-08-08T11:55:35.284Z,43.21
2022-08-08T11:58:08.412Z,43.67
2022-08-08T12:00:59.906Z,42.71
2022-08-08T12:03:30.577Z,43.73
2022-08-08T12:05:57.477Z,43.23
2022-08-08T12:08:30.872Z,42.51
2022-08-08T12:10:59.867Z,44.04
2022-08-08T12:13:38.057Z,44.32
2022-08-08T12:16:16.237Z,43.22
2022-08-08T12:18:49.448Z,43.40
2022-08-08T12:21:59.876Z,42.41
2022-08-08T12:24:14.236Z,41.95
2022-08-08T12:26:50.066Z,41.95
2022-08-08T12:29:21.481Z,41.78
2022-08-08T12:31:53.687Z,41.49
2022-08-08T12:34:36.231Z,41.39
2022-08-08T12:37:05.345Z,41.69
2022-08-08T12:40:00.077Z,41.46
2022-08-08T12:42:21.865Z,40.85
2022-08-08T12:44:50.410Z,41.10
2022-08-08T12:47:58.020Z,41.70
2022-08-08T12:50:13.492Z,42.63
2022-08-08T12:52:42.335Z,42.42
2022-08-08T12:55:13.648Z,41.51
2022-08-08T12:57:49.951Z,42.20
2022-08-08T13:00:33.818Z,41.86
2022-08-08T13:03:05.426Z,41.73
2022-08-08T13:06:05.402Z,41.91
2022-08-08T13:08:21.769Z,41.90
2022-08-08T13:10:56.675Z,41.51
2022-08-08T13:13:37.021Z,41.92
2022-08-08T13:16:20.573Z,41.82
2022-08-08T13:18:58.251Z,41.60
2022-08-08T13:21:53.375Z,41.79
2022-08-08T13:24:18.303Z,41.39
2022-08-08T13:26:45.492Z,41.45
2022-08-08T13:29:13.604Z,41.11
2022-08-08T13:31:51.669Z,42.28
2022-08-08T13:34:29.345Z,42.71
2022-08-08T13:36:59.826Z,41.59
2022-08-08T13:39:26.317Z,41.96
2022-08-08T13:42:00.146Z,42.30
2022-08-08T13:44:29.022Z,41.57
2022-08-08T13:46:59.009Z,41.57
2022-08-08T13:50:36.587Z,41.82
2022-08-08T13:52:12.175Z,42.03
2022-08-08T13:54:50.403Z,42.50
2022-08-08T13:57:19.037Z,42.22
2022-08-08T14:00:09.821Z,41.55
2022-08-08T14:02:36.812Z,41.48
2022-08-08T14:05:20.178Z,42.10
2022-08-08T14:07:49.875Z,41.98
2022-08-08T14:10:33.627Z,41.56
2022-08-08T14:13:09.959Z,42.45
2022-08-08T14:16:01.428Z,41.84
2022-08-08T14:18:35.576Z,41.99
2022-08-08T14:21:15.305Z,41.86
2022-08-08T14:24:04.214Z,42.73
2022-08-08T14:26:38.172Z,42.32
2022-08-08T14:29:06.156Z,43.39
2022-08-08T14:32:09.344Z,42.94
2022-08-08T14:34:33.259Z,42.53
2022-08-08T14:37:05.499Z,42.63
2022-08-08T14:39:48.399Z,43.14
2022-08-08T14:42:16.743Z,42.56
2022-08-08T14:44:52.888Z,42.78
2022-08-08T14:47:21.720Z,43.04
2022-08-08T14:50:06.263Z,43.45
2022-08-08T14:52:39.152Z,43.60
2022-08-08T14:55:10.452Z,42.78
2022-08-08T14:58:05.998Z,42.78
2022-08-08T15:00:25.167Z,42.41
2022-08-08T15:02:58.924Z,42.00
2022-08-08T15:05:43.090Z,41.99
2022-08-08T15:08:22.436Z,41.40
2022-08-08T15:11:00.463Z,41.81
2022-08-08T15:13:26.858Z,41.36
2022-08-08T15:16:08.499Z,42.03
2022-08-08T15:18:40.051Z,42.60
2022-08-08T15:21:10.551Z,42.68
2022-08-08T15:23:37.533Z,42.35
2022-08-08T15:26:04.170Z,43.11
2022-08-08T15:28:33.951Z,43.97
2022-08-08T15:31:01.316Z,43.27
2022-08-08T15:33:35.358Z,43.38
2022-08-08T15:36:05.402Z,42.95
2022-08-08T15:38:32.425Z,43.23
2022-08-08T15:40:59.040Z,42.97
2022-08-08T15:43:36.423Z,43.08
2022-08-08T15:46:05.143Z,43.02
2022-08-08T15:48:31.550Z,43.66
2022-08-08T15:51:01.650Z,44.16
2022-08-08T15:53:40.231Z,43.37
2022-08-08T15:56:10.838Z,44.24
2022-08-08T15:58:39.367Z,44.07
2022-08-08T16:01:14.875Z,43.92
2022-08-08T16:03:42.175Z,44.45
2022-08-08T16:06:14.470Z,44.11
2022-08-08T16:08:40.996Z,44.00
2022-08-08T16:13:11.973Z,44.26
2022-08-08T16:14:16.014Z,43.65
2022-08-08T16:16:58.905Z,44.57
2022-08-08T16:19:26.234Z,43.89
2022-08-08T16:21:54.067Z,44.73
2022-08-08T16:24:22.957Z,44.35
2022-08-08T16:26:50.819Z,43.99
2022-08-08T16:29:37.057Z,44.09
2022-08-08T16:32:04.284Z,44.17
2022-08-08T16:34:37.705Z,44.34
2022-08-08T16:37:05.303Z,44.04
2022-08-08T16:40:02.212Z,43.99
2022-08-08T16:42:18.778Z,44.45
2022-08-08T16:44:53.967Z,44.87
2022-08-08T16:47:40.053Z,43.80
2022-08-08T16:50:13.193Z,44.86
2022-08-08T16:55:06.926Z,44.82
2022-08-08T16:55:53.239Z,44.62
2022-08-08T16:58:18.484Z,44.66
2022-08-08T17:00:48.756Z,45.02
2022-08-08T17:03:24.430Z,45.43
2022-08-08T17:05:53.480Z,45.64
2022-08-08T17:08:20.294Z,45.83
2022-08-08T17:10:58.142Z,45.95
2022-08-08T17:13:40.930Z,45.98
2022-08-08T17:16:17.114Z,45.84
2022-08-08T17:18:45.619Z,46.46
2022-08-08T17:21:12.414Z,46.43
2022-08-08T17:24:01.918Z,46.89
2022-08-08T17:26:28.895Z,46.73
2022-08-08T17:28:55.843Z,46.92
2022-08-08T17:31:43.662Z,46.70
2022-08-08T17:34:53.981Z,46.87
2022-08-08T17:37:03.076Z,46.76
2022-08-08T17:40:03.820Z,46.59
2022-08-08T17:42:17.951Z,46.86
2022-08-08T17:44:45.019Z,47.18
2022-08-08T17:47:16.295Z,46.50
2022-08-08T17:49:51.801Z,46.65
2022-08-08T17:52:19.177Z,47.02
2022-08-08T17:54:46.369Z,47.50
2022-08-08T17:57:14.244Z,47.37
2022-08-08T17:59:45.927Z,46.86
2022-08-08T18:02:16.339Z,46.67
2022-08-08T18:04:50.658Z,47.18
2022-08-08T18:08:03.621Z,47.12
2022-08-08T18:10:04.507Z,47.16
2022-08-08T18:12:30.875Z,47.03
2022-08-08T18:14:57.535Z,46.62
2022-08-08T18:17:28.568Z,47.12
2022-08-08T18:20:44.409Z,47.25
2022-08-08T18:22:50.663Z,46.87
2022-08-08T18:25:17.628Z,46.69
2022-08-08T18:27:45.634Z,46.41
2022-08-08T18:30:13.166Z,46.50
2022-08-08T18:32:41.964Z,46.48
2022-08-08T18:35:15.503Z,45.92
2022-08-08T18:37:47.883Z,45.55
2022-08-08T18:40:15.226Z,46.37
2022-08-08T18:42:45.804Z,46.03
2022-08-08T18:46:52.281Z,46.20
2022-08-08T18:48:08.396Z,48.15
2022-08-08T18:50:39.767Z,47.75
2022-08-08T18:53:22.451Z,48.18
2022-08-08T18:55:49.255Z,48.35
2022-08-08T18:58:15.635Z,48.86
2022-08-08T19:00:46.494Z,50.05
2022-08-08T19:03:16.542Z,50.24
2022-08-08T19:05:46.421Z,49.85
2022-08-08T19:08:25.387Z,49.01
2022-08-08T19:10:56.182Z,49.88
2022-08-08T19:13:24.488Z,50.97
2022-08-08T19:15:55.618Z,50.99
2022-08-08T19:18:33.134Z,49.87
2022-08-08T19:21:29.401Z,50.25
2022-08-08T19:23:56.012Z,49.84
2022-08-08T19:26:30.768Z,49.65
2022-08-08T19:28:58.275Z,49.97
2022-08-08T19:31:31.464Z,49.67
2022-08-08T19:34:29.774Z,50.22
2022-08-08T19:36:51.940Z,49.67
2022-08-08T19:39:19.594Z,49.78
2022-08-08T19:41:49.404Z,50.32
2022-08-08T19:44:42.360Z,50.92
2022-08-08T19:47:04.216Z,50.97
2022-08-08T19:49:37.685Z,50.75
2022-08-08T19:52:04.891Z,50.58
2022-08-08T19:54:31.966Z,51.39
2022-08-08T19:56:58.794Z,52.45
2022-08-08T19:59:31.041Z,52.44
2022-08-08T20:02:04.561Z,52.54
2022-08-08T20:04:31.646Z,51.79
2022-08-08T20:07:05.033Z,53.20
2022-08-08T20:09:45.267Z,52.52
2022-08-08T20:12:32.535Z,52.26
2022-08-08T20:15:02.277Z,53.22
2022-08-08T20:17:41.964Z,52.80
2022-08-08T20:20:10.266Z,53.54
2022-08-08T20:22:40.237Z,53.93
2022-08-08T20:25:07.909Z,53.39
2022-08-08T20:27:49.266Z,55.09
2022-08-08T20:30:38.989Z,54.76
2022-08-08T20:33:04.401Z,54.92
2022-08-08T20:35:57.058Z,54.98
2022-08-08T20:38:32.402Z,54.92
2022-08-08T20:41:00.435Z,54.79
2022-08-08T20:43:42.955Z,55.48
2022-08-08T20:46:09.675Z,55.47
2022-08-08T20:48:37.013Z,56.23
2022-08-08T20:51:05.378Z,56.22
2022-08-08T20:53:59.114Z,55.83
2022-08-08T20:56:20.121Z,56.18
2022-08-08T20:59:03.288Z,57.24
2022-08-08T21:01:32.600Z,56.96
2022-08-08T21:04:14.207Z,57.75
2022-08-08T21:06:52.548Z,57.41
2022-08-08T21:09:21.667Z,57.98
2022-08-08T21:11:50.360Z,58.23
2022-08-08T21:14:17.803Z,58.07
2022-08-08T21:16:56.992Z,58.45
2022-08-08T21:19:23.401Z,58.79
2022-08-08T21:21:56.757Z,58.33
2022-08-08T21:24:30.244Z,58.15
2022-08-08T21:26:57.955Z,58.74
2022-08-08T21:30:05.743Z,59.27
2022-08-08T21:32:19.123Z,58.96
2022-08-08T21:34:51.598Z,58.91
2022-08-08T21:37:28.759Z,58.58
2022-08-08T21:40:10.226Z,59.15
2022-08-08T21:42:37.857Z,59.78
2022-08-08T21:45:44.060Z,59.50
2022-08-08T21:48:01.100Z,59.20
2022-08-08T21:50:29.649Z,59.64
2022-08-08T21:54:22.636Z,59.25
2022-08-08T21:56:26.728Z,59.48
2022-08-08T21:58:37.543Z,59.55
2022-08-08T22:01:04.675Z,58.72
2022-08-08T22:03:31.489Z,59.37
2022-08-08T22:06:00.623Z,59.62
2022-08-08T22:08:37.069Z,59.18
2022-08-08T22:11:51.279Z,59.76
2022-08-08T22:13:55.182Z,59.88
2022-08-08T22:16:22.316Z,58.98
2022-08-08T22:18:52.603Z,59.39
2022-08-08T22:21:21.773Z,59.78
2022-08-08T22:23:51.358Z,59.77
2022-08-08T22:26:29.902Z,59.43
2022-08-08T22:29:14.385Z,59.88
2022-08-08T22:31:58.930Z,59.74
2022-08-08T22:34:30.550Z,60.15
2022-08-08T22:36:56.909Z,60.09
2022-08-08T22:39:23.289Z,60.93
2022-08-08T22:42:10.036Z,60.84
2022-08-08T22:44:36.972Z,60.90
2022-08-08T22:47:17.714Z,61.10
2022-08-08T22:49:44.875Z,60.61
2022-08-08T22:52:25.935Z,60.77
2022-08-08T22:54:55.969Z,61.53
2022-08-08T22:57:43.595Z,61.15
2022-08-08T23:00:13.347Z,61.32
2022-08-08T23:02:40.043Z,62.06
2022-08-08T23:05:13.721Z,61.12
2022-08-08T23:07:51.017Z,61.65
2022-08-08T23:10:25.567Z,62.49
2022-08-08T23:12:54.538Z,62.17
2022-08-08T23:16:39.329Z,62.58
2022-08-08T23:18:08.450Z,62.92
2022-08-08T23:20:39.002Z,63.07
2022-08-08T23:23:05.427Z,62.54
2022-08-08T23:25:45.415Z,62.71
2022-08-08T23:28:15.486Z,62.98
2022-08-08T23:30:44.275Z,63.40
2022-08-08T23:33:19.267Z,63.18
2022-08-08T23:36:06.735Z,63.71
2022-08-08T23:38:34.496Z,63.83
2022-08-08T23:41:00.887Z,64.15
2022-08-08T23:43:31.652Z,64.28
2022-08-08T23:49:02.527Z,64.21
2022-08-08T23:49:15.518Z,64.59
2022-08-08T23:52:04.029Z,64.66
2022-08-08T23:54:43.759Z,64.84
2022-08-08T23:57:26.582Z,64.78
